Time;durP1;ratioP1;P1;durP2;ratioP2;P2;SDS_P1;SDS_P2;PMS_P1;PMS_P2;Temp;Humidity;BMP_temperature;BMP_pressure;BME280_temperature;BME280_humidity;BME280_pressure;Samples;Min_cycle;Max_cycle;Signal;HPM_P1;HPM_P2
2024/01/16 00:02:16;;;;;;;2.20;2.00;;;5.10;62.70;3.20;95539.00;;;;5081044;28;20215;-80
2024/01/16 00:04:43;;;;;;;2.90;1.63;;;5.10;62.70;3.20;95556.00;;;;5081656;28;20196;-80
2024/01/16 00:07:10;;;;;;;2.27;1.70;;;5.10;62.60;3.20;95554.00;;;;5086981;28;20280;-80
2024/01/16 00:09:40;;;;;;;2.00;1.80;;;5.10;62.60;3.30;95559.00;;;;5081704;28;20275;-80
2024/01/16 00:12:09;;;;;;;1.80;1.50;;;5.10;62.30;3.30;95571.00;;;;5079988;28;20188;-80
2024/01/16 00:14:38;;;;;;;1.93;1.60;;;5.10;62.50;3.30;95564.00;;;;5078627;28;20204;-80
2024/01/16 00:17:06;;;;;;;1.83;1.40;;;5.10;62.70;3.30;95564.00;;;;5080043;28;20181;-80
2024/01/16 00:19:34;;;;;;;1.70;1.60;;;5.10;62.70;3.30;95572.00;;;;5082248;28;20294;-80
2024/01/16 00:22:02;;;;;;;2.33;1.60;;;5.20;62.40;3.30;95573.00;;;;5081084;28;20657;-80
2024/01/16 00:24:30;;;;;;;1.97;1.87;;;5.10;62.30;3.30;95568.00;;;;5078639;28;20218;-80
2024/01/16 00:26:58;;;;;;;2.03;1.83;;;5.10;62.20;3.30;95573.00;;;;5075807;28;20311;-80
2024/01/16 00:29:25;;;;;;;1.47;1.37;;;5.10;62.20;3.30;95575.00;;;;5077213;28;20203;-80
2024/01/16 00:31:53;;;;;;;1.70;1.57;;;5.00;62.20;3.30;95577.00;;;;5074047;28;20184;-80
2024/01/16 00:34:20;;;;;;;2.20;1.40;;;5.10;62.40;3.30;95584.00;;;;5076623;28;20231;-80
2024/01/16 00:36:47;;;;;;;2.30;1.90;;;5.10;62.30;3.30;95591.00;;;;5072022;28;20184;-80
2024/01/16 00:39:14;;;;;;;2.13;1.57;;;5.10;62.50;3.30;95583.00;;;;5076124;28;20717;-80
2024/01/16 00:41:42;;;;;;;1.50;1.40;;;5.10;63.10;3.30;95588.00;;;;5077852;28;20215;-80
2024/01/16 00:44:12;;;;;;;2.13;1.67;;;5.10;62.20;3.30;95589.00;;;;5081743;28;20649;-80
2024/01/16 00:46:39;;;;;;;1.70;1.40;;;5.10;62.00;3.30;95593.00;;;;5071312;28;20188;-80
2024/01/16 00:49:07;;;;;;;1.57;1.47;;;5.10;62.20;3.30;95598.00;;;;5080898;28;20303;-80
2024/01/16 00:51:34;;;;;;;2.93;1.70;;;5.10;62.00;3.30;95603.00;;;;5078977;28;20200;-80
2024/01/16 00:54:02;;;;;;;1.77;1.53;;;5.10;62.20;3.30;95597.00;;;;5080984;28;20207;-80
2024/01/16 00:56:32;;;;;;;2.17;1.83;;;5.10;62.20;3.30;95601.00;;;;5082202;28;20188;-80
2024/01/16 00:58:59;;;;;;;1.73;1.60;;;5.10;62.20;3.30;95599.00;;;;5081678;28;20212;-80
2024/01/16 01:01:28;;;;;;;1.90;1.53;;;5.10;62.10;3.30;95605.00;;;;5083577;28;20188;-80
2024/01/16 01:03:56;;;;;;;1.60;1.43;;;5.10;62.20;3.30;95607.00;;;;5084197;28;20184;-80
2024/01/16 01:06:23;;;;;;;2.20;1.40;;;5.10;62.20;3.30;95611.00;;;;5082339;28;20256;-80
2024/01/16 01:08:51;;;;;;;2.03;1.80;;;5.10;62.00;3.30;95621.00;;;;5082618;28;20239;-80
2024/01/16 01:11:18;;;;;;;2.17;1.53;;;5.10;61.90;3.20;95616.00;;;;5088118;28;20192;-80
2024/01/16 01:13:46;;;;;;;1.53;1.43;;;5.10;61.80;3.20;95621.00;;;;5083861;28;20564;-80
2024/01/16 01:16:13;;;;;;;1.57;1.07;;;5.10;61.90;3.30;95629.00;;;;5082863;28;20257;-80
2024/01/16 01:18:42;;;;;;;1.30;1.20;;;5.10;61.90;3.30;95628.00;;;;5080889;28;20238;-80
2024/01/16 01:21:09;;;;;;;1.57;1.40;;;5.10;61.80;3.20;95635.00;;;;5076130;28;20199;-80
2024/01/16 01:23:38;;;;;;;1.80;1.60;;;5.10;61.80;3.20;95629.00;;;;5079791;28;20196;-80
2024/01/16 01:26:07;;;;;;;1.23;1.13;;;5.10;61.80;3.20;95645.00;;;;5079675;28;20189;-79
2024/01/16 01:28:34;;;;;;;1.30;1.20;;;5.10;61.80;3.20;95631.00;;;;5093697;28;20224;-80
2024/01/16 01:31:01;;;;;;;1.37;1.23;;;5.10;61.70;3.20;95645.00;;;;5078903;28;20718;-79
2024/01/16 01:33:29;;;;;;;2.37;1.77;;;5.10;61.80;3.20;95640.00;;;;5075885;28;20217;-80
2024/01/16 01:35:57;;;;;;;1.60;1.50;;;5.00;62.40;3.20;95651.00;;;;5080670;28;20206;-79
2024/01/16 01:38:24;;;;;;;1.50;1.23;;;5.00;61.40;3.20;95647.00;;;;5083031;28;20227;-79
2024/01/16 01:40:51;;;;;;;1.47;1.30;;;5.10;61.40;3.10;95652.00;;;;5086275;28;20645;-80
2024/01/16 01:43:21;;;;;;;1.73;1.63;;;5.00;61.30;3.10;95658.00;;;;5082260;28;20199;-80
2024/01/16 01:46:09;;;;;;;1.60;1.30;;;5.00;61.30;3.10;95654.00;;;;5073894;28;20191;-80
2024/01/16 01:48:40;;;;;;;2.03;1.53;;;5.00;61.10;3.10;95662.00;;;;5080167;28;20605;-80
2024/01/16 01:51:09;;;;;;;1.43;1.30;;;4.90;61.10;3.00;95659.00;;;;5083030;28;20733;-80
2024/01/16 01:53:37;;;;;;;1.77;1.30;;;4.90;61.00;3.00;95660.00;;;;5082889;28;20218;-80
2024/01/16 01:56:09;;;;;;;1.50;1.40;;;4.90;61.00;3.00;95667.00;;;;5101480;28;20196;-80
2024/01/16 01:58:38;;;;;;;3.10;1.40;;;4.90;61.00;3.00;95667.00;;;;5081710;28;20726;-80
2024/01/16 02:01:08;;;;;;;1.30;1.20;;;4.90;61.00;3.00;95667.00;;;;5085095;28;20210;-80
2024/01/16 02:03:43;;;;;;;1.50;1.30;;;4.80;60.90;3.00;95675.00;;;;5080388;28;20196;-80
2024/01/16 02:06:13;;;;;;;1.60;1.50;;;4.80;61.10;3.00;95677.00;;;;5082248;28;20621;-80
2024/01/16 02:08:41;;;;;;;1.37;1.27;;;4.90;61.00;2.90;95679.00;;;;5082550;28;20218;-80
2024/01/16 02:11:08;;;;;;;1.63;1.40;;;4.80;60.90;2.90;95684.00;;;;5084649;28;20263;-80
2024/01/16 02:13:37;;;;;;;2.67;1.47;;;4.80;61.00;2.90;95689.00;;;;5081612;28;20192;-79
2024/01/16 02:16:06;;;;;;;1.43;1.33;;;4.80;61.80;2.90;95692.00;;;;5077477;28;20211;-79
2024/01/16 02:18:33;;;;;;;1.80;1.60;;;4.80;61.00;2.90;95699.00;;;;5077131;28;20743;-79
2024/01/16 02:21:05;;;;;;;2.20;1.40;;;4.80;61.80;2.90;95701.00;;;;5076983;28;20212;-79
2024/01/16 02:23:35;;;;;;;3.30;2.00;;;4.80;61.00;2.90;95710.00;;;;5077106;28;20203;-79
2024/01/16 02:26:04;;;;;;;2.10;1.50;;;4.80;60.90;2.90;95698.00;;;;5077025;28;20660;-79
2024/01/16 02:28:31;;;;;;;1.50;1.30;;;4.80;61.00;2.90;95707.00;;;;5079096;28;20237;-79
2024/01/16 02:30:58;;;;;;;1.63;1.40;;;4.70;61.00;2.90;95703.00;;;;5079185;28;20671;-79
2024/01/16 02:33:24;;;;;;;1.40;1.30;;;4.70;61.10;2.90;95697.00;;;;5082261;28;20187;-79
2024/01/16 02:35:52;;;;;;;1.77;1.50;;;4.70;60.80;2.80;95697.00;;;;5080350;28;20192;-79
2024/01/16 02:38:21;;;;;;;2.50;1.60;;;4.70;60.80;2.80;95703.00;;;;5077393;28;20220;-80
2024/01/16 02:40:52;;;;;;;2.00;1.50;;;4.70;60.60;2.80;95708.00;;;;5077228;28;20192;-79
2024/01/16 02:43:20;;;;;;;1.40;1.30;;;4.70;60.60;2.70;95710.00;;;;5080536;28;20192;-80
2024/01/16 02:45:47;;;;;;;1.53;1.30;;;4.60;60.50;2.70;95708.00;;;;5065799;28;20195;-80
2024/01/16 02:48:15;;;;;;;3.10;1.60;;;4.60;60.70;2.70;95715.00;;;;5079311;28;20207;-80
2024/01/16 02:50:42;;;;;;;1.70;1.53;;;4.60;60.50;2.70;95714.00;;;;5079965;28;20204;-79
2024/01/16 02:53:10;;;;;;;2.87;1.60;;;4.60;60.60;2.60;95702.00;;;;5076729;28;20184;-79
2024/01/16 02:55:37;;;;;;;1.53;1.20;;;4.60;60.80;2.70;95709.00;;;;5079520;28;20188;-79
2024/01/16 02:58:05;;;;;;;1.60;1.50;;;4.50;60.90;2.60;95701.00;;;;5078490;28;20207;-79
2024/01/16 03:00:33;;;;;;;1.77;1.30;;;4.60;61.00;2.70;95717.00;;;;5077504;28;20188;-79
2024/01/16 03:03:00;;;;;;;1.50;1.40;;;4.50;60.90;2.70;95715.00;;;;5070742;28;20203;-80
2024/01/16 03:05:27;;;;;;;1.83;1.37;;;4.50;61.00;2.70;95717.00;;;;5067540;28;20291;-79
2024/01/16 03:07:55;;;;;;;1.57;1.47;;;4.60;61.00;2.70;95717.00;;;;5070656;28;20227;-80
2024/01/16 03:10:23;;;;;;;1.40;1.10;;;4.60;61.10;2.70;95725.00;;;;5077195;28;20204;-79
2024/01/16 03:12:50;;;;;;;2.03;1.50;;;4.60;60.90;2.70;95710.00;;;;5076634;28;20295;-79
2024/01/16 03:15:20;;;;;;;1.90;1.70;;;4.50;60.70;2.70;95715.00;;;;5075475;28;20593;-79
2024/01/16 03:17:48;;;;;;;2.20;1.87;;;4.50;60.50;2.70;95701.00;;;;5055950;28;20177;-79
2024/01/16 03:20:16;;;;;;;2.33;1.60;;;4.50;60.50;2.70;95707.00;;;;5094232;28;20296;-79
2024/01/16 03:22:47;;;;;;;1.50;1.40;;;4.50;60.60;2.60;95723.00;;;;5075080;28;20188;-79
2024/01/16 03:25:14;;;;;;;1.40;1.30;;;4.50;60.40;2.60;95721.00;;;;5075866;28;20194;-80
2024/01/16 03:27:41;;;;;;;1.80;1.30;;;4.50;60.40;2.60;95726.00;;;;5076240;28;20212;-79
2024/01/16 03:30:10;;;;;;;2.23;1.30;;;4.50;60.30;2.60;95721.00;;;;5076590;28;20242;-80
2024/01/16 03:32:50;;;;;;;1.80;1.50;;;4.50;60.40;2.60;95737.00;;;;5076447;28;20572;-80
2024/01/16 03:35:18;;;;;;;1.30;1.20;;;4.50;60.30;2.60;95734.00;;;;5076602;28;20224;-80
2024/01/16 03:37:45;;;;;;;2.53;1.80;;;4.50;60.70;2.60;95731.00;;;;5074977;28;20223;-79
2024/01/16 03:40:13;;;;;;;1.53;1.43;;;4.50;60.50;2.50;95730.00;;;;5076125;28;20218;-79
2024/01/16 03:42:40;;;;;;;1.47;1.37;;;4.40;60.20;2.50;95730.00;;;;5076450;28;20612;-79
2024/01/16 03:45:09;;;;;;;1.70;1.60;;;4.40;60.30;2.50;95735.00;;;;5075985;28;20642;-79
2024/01/16 03:47:40;;;;;;;1.40;1.23;;;4.40;60.50;2.50;95732.00;;;;5092579;28;20533;-79
2024/01/16 03:50:10;;;;;;;1.90;1.47;;;4.30;60.50;2.50;95732.00;;;;5083219;28;20219;-79
2024/01/16 03:52:37;;;;;;;2.33;1.60;;;4.30;60.30;2.40;95734.00;;;;5077124;28;20283;-79
2024/01/16 03:55:05;;;;;;;2.00;1.43;;;4.30;60.30;2.40;95726.00;;;;5075109;28;20599;-79
2024/01/16 03:57:33;;;;;;;1.20;1.20;;;4.30;60.20;2.30;95726.00;;;;5090306;28;20203;-79
2024/01/16 04:00:05;;;;;;;1.63;1.43;;;4.20;60.70;2.30;95726.00;;;;5074557;28;20236;-78
2024/01/16 04:02:32;;;;;;;1.93;1.43;;;4.20;60.00;2.20;95715.00;;;;5074429;28;20188;-78
2024/01/16 04:04:59;;;;;;;2.67;1.60;;;4.10;60.00;2.20;95725.00;;;;5072062;28;20188;-78
2024/01/16 04:07:29;;;;;;;1.57;1.47;;;4.10;60.00;2.10;95717.00;;;;5071663;28;20511;-78
2024/01/16 04:09:56;;;;;;;1.70;1.60;;;4.00;60.50;2.10;95718.00;;;;5072325;28;20486;-78
2024/01/16 04:12:23;;;;;;;1.67;1.57;;;4.00;59.80;2.00;95725.00;;;;5075759;28;20495;-78
2024/01/16 04:14:51;;;;;;;2.00;1.80;;;3.80;60.50;2.00;95727.00;;;;5077098;28;20473;-78
2024/01/16 04:17:18;;;;;;;2.07;1.93;;;3.90;60.10;1.90;95729.00;;;;5075986;28;20469;-78
2024/01/16 04:19:45;;;;;;;2.93;1.60;;;3.80;60.10;1.90;95729.00;;;;5072377;28;20886;-77
2024/01/16 04:22:12;;;;;;;1.70;1.60;;;3.80;60.20;1.90;95724.00;;;;5064695;28;20538;-76
2024/01/16 04:24:41;;;;;;;2.43;1.90;;;3.70;60.40;1.80;95732.00;;;;5071285;28;20470;-77
2024/01/16 04:27:08;;;;;;;2.60;2.00;;;3.70;60.50;1.80;95732.00;;;;5071214;28;20454;-76
2024/01/16 04:29:38;;;;;;;3.00;1.80;;;3.70;60.70;1.80;95723.00;;;;5072470;28;20551;-76
2024/01/16 04:32:05;;;;;;;2.47;2.00;;;3.70;60.80;1.70;95729.00;;;;5073334;28;20276;-77
2024/01/16 04:34:32;;;;;;;2.80;1.90;;;3.60;61.00;1.70;95722.00;;;;5074252;28;20529;-76
2024/01/16 04:36:59;;;;;;;3.17;2.23;;;3.60;61.00;1.70;95723.00;;;;5080713;28;20461;-76
2024/01/16 04:39:27;;;;;;;2.00;1.90;;;3.60;60.80;1.70;95727.00;;;;5073791;28;20564;-76
2024/01/16 04:41:55;;;;;;;2.40;1.83;;;3.60;61.20;1.70;95721.00;;;;5074583;28;20443;-76
2024/01/16 04:44:23;;;;;;;3.20;1.87;;;3.60;61.30;1.80;95720.00;;;;5073091;28;20438;-76
2024/01/16 04:46:50;;;;;;;2.53;1.80;;;3.60;61.40;1.80;95717.00;;;;5074550;28;20466;-76
2024/01/16 04:49:19;;;;;;;2.67;1.50;;;3.60;61.40;1.80;95723.00;;;;5074381;28;20474;-76
2024/01/16 04:51:47;;;;;;;1.60;1.50;;;3.60;61.10;1.80;95722.00;;;;5074454;28;20184;-76
2024/01/16 04:54:15;;;;;;;1.90;1.60;;;3.60;61.20;1.80;95719.00;;;;5056349;28;20982;-76
2024/01/16 04:56:43;;;;;;;2.97;2.10;;;3.70;61.30;1.80;95718.00;;;;5074113;28;20442;-76
2024/01/16 04:59:11;;;;;;;2.90;2.00;;;3.70;61.70;1.70;95721.00;;;;5073240;28;20311;-76
2024/01/16 05:01:38;;;;;;;2.63;1.70;;;3.70;61.60;1.70;95719.00;;;;5074737;28;20271;-76
2024/01/16 05:04:07;;;;;;;1.80;1.70;;;3.60;60.70;1.70;95718.00;;;;5072070;28;20293;-76
2024/01/16 05:06:35;;;;;;;1.70;1.50;;;3.60;61.00;1.70;95708.00;;;;5072160;28;21078;-76
2024/01/16 05:09:03;;;;;;;3.10;2.20;;;3.60;61.10;1.70;95706.00;;;;5070948;28;20564;-76
2024/01/16 05:11:30;;;;;;;3.13;2.27;;;3.60;61.10;1.70;95715.00;;;;5072508;28;20196;-76
2024/01/16 05:13:58;;;;;;;1.93;1.80;;;3.60;61.10;1.70;95718.00;;;;5072284;28;20947;-76
2024/01/16 05:16:27;;;;;;;2.50;1.83;;;3.60;60.80;1.60;95716.00;;;;5072391;28;20495;-76
2024/01/16 05:18:54;;;;;;;2.00;1.70;;;3.50;60.60;1.60;95719.00;;;;5073359;28;20562;-76
2024/01/16 05:21:21;;;;;;;1.70;1.60;;;3.50;60.50;1.50;95714.00;;;;5074281;28;20530;-76
2024/01/16 05:23:48;;;;;;;2.17;1.93;;;3.50;61.10;1.50;95725.00;;;;5064761;28;20926;-76
2024/01/16 05:26:15;;;;;;;2.43;1.97;;;3.40;60.40;1.40;95720.00;;;;5071673;28;20452;-76
2024/01/16 05:28:42;;;;;;;2.30;1.60;;;3.40;60.50;1.40;95723.00;;;;5073249;28;20502;-76
2024/01/16 05:31:09;;;;;;;2.33;1.97;;;3.30;60.60;1.40;95720.00;;;;5075423;28;20943;-75
2024/01/16 05:33:38;;;;;;;2.40;2.20;;;3.30;60.60;1.30;95716.00;;;;5071830;28;20504;-76
2024/01/16 05:36:05;;;;;;;3.33;2.57;;;3.30;60.60;1.30;95717.00;;;;5073470;28;20537;-76
2024/01/16 05:38:33;;;;;;;4.87;2.90;;;3.20;60.60;1.20;95709.00;;;;5080373;28;20556;-76
2024/01/16 05:41:00;;;;;;;4.20;2.93;;;3.20;60.80;1.10;95703.00;;;;5072639;28;20856;-76
2024/01/16 05:43:29;;;;;;;4.30;2.80;;;3.10;60.70;1.10;95702.00;;;;5071282;28;20541;-75
2024/01/16 05:45:57;;;;;;;4.67;3.10;;;3.10;60.90;1.10;95697.00;;;;5070725;28;20955;-76
2024/01/16 05:48:24;;;;;;;3.50;3.00;;;3.00;61.00;1.10;95698.00;;;;5071848;28;20545;-75
2024/01/16 05:50:52;;;;;;;2.63;2.40;;;3.00;61.10;1.00;95702.00;;;;5072930;28;20505;-76
2024/01/16 05:53:20;;;;;;;4.03;3.03;;;3.00;61.00;1.00;95708.00;;;;5072910;28;20466;-76
2024/01/16 05:55:47;;;;;;;3.77;2.57;;;2.90;60.90;1.00;95707.00;;;;5071800;28;20935;-75
2024/01/16 05:58:14;;;;;;;2.60;2.00;;;2.90;61.20;0.90;95710.00;;;;5072482;28;20478;-75
2024/01/16 06:00:41;;;;;;;2.73;2.50;;;2.90;61.00;0.90;95722.00;;;;5071822;28;20464;-75
2024/01/16 06:03:08;;;;;;;1.87;1.77;;;2.80;61.20;0.90;95719.00;;;;5074765;28;20869;-75
2024/01/16 06:05:35;;;;;;;2.30;2.03;;;2.80;61.30;0.80;95718.00;;;;5070349;28;20438;-76
2024/01/16 06:08:05;;;;;;;2.30;2.13;;;2.80;61.30;0.80;95714.00;;;;5069703;28;20466;-75
2024/01/16 06:10:32;;;;;;;2.40;1.97;;;2.80;61.20;0.80;95710.00;;;;5071052;28;20502;-75
2024/01/16 06:12:59;;;;;;;2.10;1.90;;;2.80;61.50;0.80;95710.00;;;;5070371;28;20470;-75
2024/01/16 06:15:26;;;;;;;2.20;2.00;;;2.80;61.60;0.80;95702.00;;;;5070972;28;20475;-75
2024/01/16 06:17:53;;;;;;;2.20;1.80;;;2.70;61.60;0.70;95714.00;;;;5071620;28;20536;-77
2024/01/16 06:20:23;;;;;;;2.33;1.77;;;2.70;61.50;0.70;95715.00;;;;5072707;28;21036;-77
2024/01/16 06:22:50;;;;;;;2.07;1.80;;;2.70;61.70;0.70;95720.00;;;;5072556;28;20442;-77
2024/01/16 06:25:19;;;;;;;2.17;2.00;;;2.70;61.70;0.70;95718.00;;;;5072762;28;20515;-77
2024/01/16 06:27:46;;;;;;;2.93;2.03;;;2.70;61.70;0.70;95716.00;;;;5072227;28;21008;-78
2024/01/16 06:30:14;;;;;;;2.73;2.10;;;2.70;61.70;0.70;95719.00;;;;5072524;28;20986;-77
2024/01/16 06:32:41;;;;;;;2.87;2.27;;;2.70;61.50;0.70;95714.00;;;;5073983;28;20540;-79
2024/01/16 06:35:09;;;;;;;3.77;2.63;;;2.70;61.40;0.70;95719.00;;;;5078981;28;20431;-77
2024/01/16 06:37:37;;;;;;;3.03;2.40;;;2.70;61.50;0.70;95714.00;;;;5070918;28;20973;-76
2024/01/16 06:40:06;;;;;;;3.57;2.60;;;2.70;61.40;0.70;95703.00;;;;5069185;28;21073;-77
2024/01/16 06:42:35;;;;;;;2.50;2.30;;;2.70;61.40;0.70;95721.00;;;;5065459;28;20849;-76
2024/01/16 06:45:03;;;;;;;2.00;1.80;;;2.70;61.60;0.70;95715.00;;;;5072327;28;20452;-77
2024/01/16 06:47:30;;;;;;;2.30;2.10;;;2.70;61.60;0.70;95716.00;;;;5071527;28;20469;-77
2024/01/16 06:49:57;;;;;;;2.27;2.00;;;2.70;61.40;0.60;95707.00;;;;5070493;28;20556;-77
2024/01/16 06:52:25;;;;;;;2.47;1.90;;;2.70;61.20;0.60;95705.00;;;;5070324;28;20449;-77
2024/01/16 06:54:52;;;;;;;2.07;1.97;;;2.70;61.20;0.60;95718.00;;;;5069476;28;20454;-77
2024/01/16 06:57:20;;;;;;;2.17;1.97;;;2.70;61.20;0.50;95706.00;;;;5069309;28;20877;-77
2024/01/16 06:59:49;;;;;;;2.73;2.20;;;2.60;61.30;0.50;95711.00;;;;5067884;28;20474;-77
2024/01/16 07:02:17;;;;;;;2.50;2.30;;;2.60;61.10;0.50;95714.00;;;;5068538;28;21104;-77
2024/01/16 07:04:44;;;;;;;2.30;2.10;;;2.60;61.10;0.40;95710.00;;;;5069583;28;20515;-77
2024/01/16 07:07:13;;;;;;;2.60;2.40;;;2.60;61.10;0.40;95720.00;;;;5069765;28;20966;-77
2024/01/16 07:09:41;;;;;;;2.37;2.17;;;2.60;61.30;0.40;95708.00;;;;5070044;28;20512;-77
2024/01/16 07:12:08;;;;;;;2.80;2.60;;;2.50;61.30;0.40;95715.00;;;;5071881;28;20473;-77
2024/01/16 07:14:37;;;;;;;3.13;2.60;;;2.50;61.50;0.40;95721.00;;;;5071626;28;20892;-77
2024/01/16 07:17:08;;;;;;;3.47;2.57;;;2.50;61.70;0.40;95717.00;;;;5072069;28;20846;-77
2024/01/16 07:19:35;;;;;;;3.17;2.70;;;2.50;61.70;0.40;95718.00;;;;5071234;28;20477;-77
2024/01/16 07:22:04;;;;;;;2.50;2.30;;;2.50;61.90;0.40;95718.00;;;;5071164;28;20828;-77
2024/01/16 07:24:31;;;;;;;4.90;3.10;;;2.50;61.90;0.50;95717.00;;;;5071448;28;20890;-77
2024/01/16 07:26:59;;;;;;;4.10;2.57;;;2.50;62.00;0.50;95710.00;;;;5070373;28;20864;-77
2024/01/16 07:29:26;;;;;;;2.83;2.63;;;2.60;62.10;0.60;95709.00;;;;5069877;28;20855;-77
2024/01/16 07:31:53;;;;;;;4.23;2.70;;;2.60;62.20;0.60;95718.00;;;;5071536;28;20478;-77
2024/01/16 07:34:22;;;;;;;2.77;2.50;;;2.60;62.10;0.60;95707.00;;;;5072804;28;21029;-77
2024/01/16 07:36:50;;;;;;;3.63;2.40;;;2.60;62.00;0.60;95706.00;;;;5070136;28;20438;-77
2024/01/16 07:39:17;;;;;;;2.97;2.67;;;2.70;62.10;0.70;95714.00;;;;5069557;28;20476;-77
2024/01/16 07:41:44;;;;;;;2.80;2.50;;;2.70;62.10;0.70;95715.00;;;;5069714;28;20457;-77
2024/01/16 07:44:11;;;;;;;3.43;2.70;;;2.70;62.10;0.70;95723.00;;;;5070866;28;20549;-77
2024/01/16 07:46:38;;;;;;;2.63;2.37;;;2.80;62.10;0.80;95721.00;;;;5070347;28;20434;-77
2024/01/16 07:49:05;;;;;;;2.93;2.20;;;2.80;62.10;0.80;95729.00;;;;5069461;28;20493;-77
2024/01/16 07:51:34;;;;;;;3.90;2.37;;;2.80;62.20;0.90;95734.00;;;;5075700;28;20533;-77
2024/01/16 07:54:10;;;;;;;2.27;2.07;;;2.90;62.00;0.90;95732.00;;;;5068998;28;20446;-78
2024/01/16 07:56:38;;;;;;;2.73;2.53;;;2.90;61.90;0.90;95736.00;;;;5070452;28;20536;-77
2024/01/16 07:59:06;;;;;;;3.20;2.53;;;2.90;62.20;1.00;95741.00;;;;5060205;28;20503;-77
2024/01/16 08:01:34;;;;;;;2.70;2.23;;;3.00;62.30;1.10;95740.00;;;;5065624;28;21035;-77
2024/01/16 08:04:01;;;;;;;3.43;2.90;;;3.00;62.40;1.10;95745.00;;;;5072228;28;20493;-77
2024/01/16 08:06:28;;;;;;;4.07;2.50;;;3.10;62.60;1.20;95741.00;;;;5074612;28;20510;-77
2024/01/16 08:08:57;;;;;;;2.60;2.40;;;3.10;62.50;1.30;95738.00;;;;5078713;28;20541;-77
2024/01/16 08:11:24;;;;;;;4.93;2.60;;;3.20;62.50;1.30;95733.00;;;;5075419;28;20474;-78
2024/01/16 08:13:51;;;;;;;9.80;5.00;;;3.30;62.70;1.40;95730.00;;;;5075052;28;20533;-77
2024/01/16 08:16:19;;;;;;;13.17;6.47;;;3.30;62.50;1.50;95735.00;;;;5079297;28;20465;-78
2024/01/16 08:18:46;;;;;;;11.77;4.93;;;3.40;62.50;1.60;95736.00;;;;5075235;28;20537;-78
2024/01/16 08:21:13;;;;;;;7.53;3.50;;;3.50;62.50;1.60;95737.00;;;;5074191;28;20434;-78
2024/01/16 08:23:40;;;;;;;11.97;4.27;;;3.50;62.40;1.70;95745.00;;;;5075283;28;20521;-77
2024/01/16 08:26:09;;;;;;;7.00;3.93;;;3.60;62.30;1.70;95730.00;;;;5082132;28;20480;-78
2024/01/16 08:28:36;;;;;;;5.47;3.40;;;3.70;62.20;1.80;95731.00;;;;5075895;28;20454;-78
2024/01/16 08:31:05;;;;;;;3.37;2.60;;;3.80;62.10;1.90;95741.00;;;;5074804;28;20498;-78
2024/01/16 08:33:32;;;;;;;6.60;3.50;;;3.80;62.00;1.90;95741.00;;;;5074960;28;20454;-78
2024/01/16 08:36:00;;;;;;;4.57;3.43;;;3.80;61.80;2.00;95741.00;;;;5073286;28;20470;-78
2024/01/16 08:38:27;;;;;;;3.57;3.00;;;3.90;61.70;2.00;95746.00;;;;5071616;28;20240;-78
2024/01/16 08:40:54;;;;;;;6.77;3.03;;;3.90;61.60;2.10;95746.00;;;;5072496;28;20446;-78
2024/01/16 08:43:23;;;;;;;2.80;2.47;;;4.00;61.60;2.10;95736.00;;;;5073304;28;20442;-78
2024/01/16 08:45:50;;;;;;;4.93;3.37;;;4.10;61.50;2.20;95748.00;;;;5066205;28;20474;-78
2024/01/16 08:48:17;;;;;;;3.07;2.77;;;4.10;61.70;2.30;95750.00;;;;5074954;28;20195;-78
2024/01/16 08:50:45;;;;;;;3.00;2.63;;;4.20;61.60;2.30;95738.00;;;;5078177;28;20560;-77
2024/01/16 08:53:12;;;;;;;3.47;2.90;;;4.20;61.70;2.40;95740.00;;;;5077561;28;20443;-78
2024/01/16 08:55:39;;;;;;;3.70;3.33;;;4.30;62.50;2.50;95730.00;;;;5082531;28;20528;-78
2024/01/16 08:58:07;;;;;;;5.73;2.87;;;4.30;61.80;2.50;95738.00;;;;5075405;28;20188;-78
2024/01/16 09:00:37;;;;;;;4.77;3.17;;;4.40;61.80;2.60;95734.00;;;;5076043;28;20199;-78
2024/01/16 09:03:05;;;;;;;6.53;3.40;;;4.50;61.80;2.70;95724.00;;;;5077898;28;20188;-78
2024/01/16 09:05:34;;;;;;;4.17;2.97;;;4.60;61.70;2.70;95721.00;;;;5074890;28;20180;-78
2024/01/16 09:08:02;;;;;;;3.13;2.47;;;4.60;61.30;2.80;95714.00;;;;5078647;28;20660;-78
2024/01/16 09:10:30;;;;;;;4.83;4.23;;;4.70;61.20;2.90;95715.00;;;;5075530;28;20226;-78
2024/01/16 09:12:57;;;;;;;6.23;3.80;;;4.70;61.10;2.90;95719.00;;;;5075309;28;20203;-79
2024/01/16 09:15:24;;;;;;;4.63;2.80;;;4.80;61.10;3.00;95717.00;;;;5079114;28;20199;-78
2024/01/16 09:17:53;;;;;;;5.80;3.00;;;4.90;62.00;3.10;95716.00;;;;5073943;28;20202;-79
2024/01/16 09:20:21;;;;;;;2.70;2.17;;;4.90;61.20;3.10;95717.00;;;;5069314;28;20222;-79
2024/01/16 09:22:48;;;;;;;3.50;2.80;;;5.00;61.20;3.20;95728.00;;;;5074638;28;20287;-79
2024/01/16 09:25:16;;;;;;;4.13;2.53;;;5.00;60.90;3.30;95723.00;;;;5074034;28;20649;-80
2024/01/16 09:27:43;;;;;;;3.67;2.40;;;5.10;61.10;3.30;95706.00;;;;5074895;28;20695;-79
2024/01/16 09:30:12;;;;;;;4.80;2.70;;;5.20;61.10;3.40;95722.00;;;;5075163;28;20299;-79
2024/01/16 09:32:39;;;;;;;3.60;2.70;;;5.20;60.60;3.40;95718.00;;;;5074762;28;20643;-79
2024/01/16 09:35:10;;;;;;;4.60;2.70;;;5.30;60.50;3.50;95718.00;;;;5074371;28;20230;-80
2024/01/16 09:37:39;;;;;;;3.17;2.17;;;5.30;60.60;3.50;95722.00;;;;5079068;28;20188;-80
2024/01/16 09:40:09;;;;;;;5.37;2.63;;;5.40;60.90;3.60;95730.00;;;;5074451;28;20204;-80
2024/01/16 09:42:36;;;;;;;5.30;3.30;;;5.40;60.60;3.70;95719.00;;;;5075124;28;20215;-80
2024/01/16 09:45:05;;;;;;;5.60;3.07;;;5.50;60.50;3.70;95733.00;;;;5074084;28;20211;-79
2024/01/16 09:47:33;;;;;;;2.77;2.40;;;5.50;60.40;3.80;95729.00;;;;5068482;28;20257;-80
2024/01/16 09:50:06;;;;;;;3.23;2.63;;;5.60;60.60;3.90;95731.00;;;;5072429;28;20334;-80
2024/01/16 09:52:35;;;;;;;3.80;2.70;;;5.70;60.30;3.90;95729.00;;;;5071695;28;20192;-80
2024/01/16 09:55:02;;;;;;;3.00;2.40;;;5.70;60.00;4.00;95730.00;;;;5071413;28;20195;-80
2024/01/16 09:57:30;;;;;;;2.93;2.47;;;5.80;60.20;4.10;95735.00;;;;5069831;28;20303;-80
2024/01/16 10:00:03;;;;;;;2.80;2.50;;;5.80;60.40;4.10;95737.00;;;;5071209;28;20301;-80
2024/01/16 10:02:30;;;;;;;3.73;2.43;;;5.90;60.40;4.20;95746.00;;;;5069977;28;20219;-80
2024/01/16 10:04:58;;;;;;;3.37;2.80;;;6.00;60.60;4.30;95745.00;;;;5074480;28;20285;-80
2024/01/16 10:07:28;;;;;;;3.30;3.00;;;6.10;60.70;4.40;95745.00;;;;5073955;28;20192;-80
2024/01/16 10:10:00;;;;;;;3.40;2.97;;;6.20;60.60;4.50;95742.00;;;;5075970;28;20231;-81
2024/01/16 10:12:27;;;;;;;5.43;2.80;;;6.20;60.50;4.60;95742.00;;;;5073350;28;20567;-80
2024/01/16 10:14:56;;;;;;;3.90;2.30;;;6.30;60.60;4.70;95735.00;;;;5078351;28;20219;-80
2024/01/16 10:17:36;;;;;;;3.03;2.63;;;6.40;60.50;4.80;95737.00;;;;5072422;28;20275;-80
2024/01/16 10:20:04;;;;;;;2.50;2.07;;;6.50;61.10;4.90;95731.00;;;;5077222;28;20712;-80
2024/01/16 10:22:32;;;;;;;5.90;2.93;;;6.50;60.30;4.90;95735.00;;;;5072735;28;20192;-80
2024/01/16 10:25:19;;;;;;;4.70;2.30;;;6.60;60.00;5.00;95739.00;;;;5072980;28;20736;-81
2024/01/16 10:27:47;;;;;;;3.87;2.53;;;6.70;59.40;5.10;95727.00;;;;5072648;28;20566;-80
2024/01/16 10:30:14;;;;;;;2.77;2.43;;;6.80;60.10;5.20;95721.00;;;;5071659;28;20242;-81
2024/01/16 10:32:43;;;;;;;4.53;2.20;;;6.90;60.20;5.30;95725.00;;;;5065671;28;20228;-80
2024/01/16 10:35:12;;;;;;;3.87;2.20;;;6.90;60.00;5.40;95711.00;;;;5073707;28;20266;-80
2024/01/16 10:37:44;;;;;;;2.93;2.40;;;7.00;59.90;5.50;95719.00;;;;5072465;28;20227;-80
2024/01/16 10:40:12;;;;;;;5.63;2.50;;;7.10;60.00;5.70;95708.00;;;;5071980;28;20635;-80
2024/01/16 10:42:40;;;;;;;2.03;1.90;;;7.20;60.40;5.80;95716.00;;;;5070627;28;20203;-80
2024/01/16 10:45:08;;;;;;;2.87;2.30;;;7.40;60.10;5.90;95716.00;;;;5073052;28;20275;-80
2024/01/16 10:47:37;;;;;;;3.83;2.30;;;7.50;59.80;6.00;95708.00;;;;5072789;28;20224;-80
2024/01/16 10:50:09;;;;;;;5.33;2.13;;;7.60;59.80;6.10;95708.00;;;;5080277;28;20644;-80
2024/01/16 10:52:45;;;;;;;2.97;1.93;;;7.70;59.40;6.10;95711.00;;;;5072337;28;20200;-80
2024/01/16 10:55:21;;;;;;;3.00;2.00;;;7.70;59.10;6.20;95700.00;;;;5068524;28;20279;-81
2024/01/16 10:57:51;;;;;;;2.60;2.03;;;7.80;59.60;6.20;95700.00;;;;5047382;28;20192;-80
2024/01/16 11:00:21;;;;;;;2.53;1.90;;;7.80;58.80;6.20;95703.00;;;;5072477;28;20208;-80
2024/01/16 11:03:00;;;;;;;2.97;1.90;;;7.80;59.20;6.20;95703.00;;;;5076829;28;20196;-80
2024/01/16 11:05:31;;;;;;;2.77;2.03;;;7.80;58.40;6.20;95698.00;;;;5073520;28;20188;-80
2024/01/16 11:08:03;;;;;;;3.43;2.00;;;7.80;58.80;6.20;95704.00;;;;5077289;28;20203;-80
2024/01/16 11:10:32;;;;;;;2.73;1.97;;;7.90;58.10;6.20;95702.00;;;;5072649;28;20752;-81
2024/01/16 11:13:03;;;;;;;2.83;2.13;;;7.90;58.10;6.20;95702.00;;;;5074865;28;20669;-80
2024/01/16 11:15:32;;;;;;;2.20;2.00;;;7.90;58.30;6.30;95701.00;;;;5074784;28;20606;-80